Time;durP1;ratioP1;P1;durP2;ratioP2;P2;SDS_P1;SDS_P2;PMS_P1;PMS_P2;Temp;Humidity;BMP_temperature;BMP_pressure;BME280_temperature;BME280_humidity;BME280_pressure;Samples;Min_cycle;Max_cycle;Signal;HPM_P1;HPM_P2
2023/10/30 00:00:08;;;;;;;10.27;2.10;;;9.80;82.60;;;;;;5107986;28;20048;-65
2023/10/30 00:02:37;;;;;;;13.67;1.90;;;9.80;82.80;;;;;;5096500;28;20047;-65
2023/10/30 00:05:04;;;;;;;12.73;2.13;;;9.70;83.00;;;;;;5107506;28;20494;-64
2023/10/30 00:07:30;;;;;;;11.73;2.10;;;9.70;83.00;;;;;;5106775;28;20105;-65
2023/10/30 00:09:55;;;;;;;10.57;2.50;;;9.70;83.10;;;;;;5107479;28;20048;-65
2023/10/30 00:12:21;;;;;;;9.90;2.20;;;9.70;83.00;;;;;;5113746;27;20273;-65
2023/10/30 00:14:47;;;;;;;5.73;2.03;;;9.70;83.10;;;;;;5106999;28;20122;-65
2023/10/30 00:17:13;;;;;;;11.03;2.00;;;9.60;83.00;;;;;;5107755;28;20044;-65
2023/10/30 00:19:39;;;;;;;8.43;1.90;;;9.60;83.00;;;;;;5105667;28;20535;-65
2023/10/30 00:22:05;;;;;;;6.20;1.90;;;9.60;83.00;;;;;;5111938;27;20050;-65
2023/10/30 00:24:32;;;;;;;8.90;1.83;;;9.60;82.80;;;;;;5114143;27;20044;-65
2023/10/30 00:26:58;;;;;;;12.20;1.73;;;9.60;82.80;;;;;;5107723;28;20044;-64
2023/10/30 00:29:24;;;;;;;8.43;1.80;;;9.60;82.90;;;;;;5107109;28;20051;-65
2023/10/30 00:31:50;;;;;;;9.23;1.90;;;9.50;82.90;;;;;;5107118;28;20096;-64
2023/10/30 00:34:15;;;;;;;6.37;1.80;;;9.50;82.80;;;;;;5106253;28;20081;-65
2023/10/30 00:36:41;;;;;;;10.97;2.10;;;9.50;82.80;;;;;;5106829;28;20062;-64
2023/10/30 00:39:07;;;;;;;7.90;2.00;;;9.40;82.70;;;;;;5106700;28;20452;-65
2023/10/30 00:41:32;;;;;;;7.13;1.80;;;9.40;82.80;;;;;;5080105;28;20044;-64
2023/10/30 00:43:58;;;;;;;9.57;2.00;;;9.40;82.70;;;;;;5088026;28;20043;-65
2023/10/30 00:46:24;;;;;;;9.90;1.50;;;9.40;82.60;;;;;;5107301;28;20093;-65
2023/10/30 00:48:49;;;;;;;9.00;1.40;;;9.40;82.40;;;;;;5106580;28;20044;-64
2023/10/30 00:51:15;;;;;;;10.07;1.80;;;9.40;82.50;;;;;;5106054;28;20047;-64
2023/10/30 00:53:42;;;;;;;7.67;1.50;;;9.40;82.40;;;;;;5106175;28;20147;-65
2023/10/30 00:56:08;;;;;;;6.30;1.40;;;9.40;82.50;;;;;;5106973;28;20104;-65
2023/10/30 00:58:34;;;;;;;5.03;1.33;;;9.30;82.50;;;;;;5106906;28;20082;-64
2023/10/30 01:01:00;;;;;;;4.37;1.20;;;9.20;82.50;;;;;;5106778;28;20122;-64
2023/10/30 01:03:26;;;;;;;6.77;1.40;;;9.20;82.50;;;;;;5099780;28;20363;-64
2023/10/30 01:05:57;;;;;;;9.00;1.63;;;9.20;82.50;;;;;;5088240;28;20406;-64
2023/10/30 01:08:22;;;;;;;4.15;1.27;;;9.10;82.60;;;;;;5106639;28;20051;-64
2023/10/30 01:10:48;;;;;;;6.90;1.27;;;9.10;82.60;;;;;;5107014;28;20058;-64
2023/10/30 01:13:14;;;;;;;6.47;1.23;;;9.00;82.60;;;;;;5104236;28;20531;-64
2023/10/30 01:15:40;;;;;;;6.87;1.60;;;9.00;82.60;;;;;;5106475;28;20052;-64
2023/10/30 01:18:05;;;;;;;6.70;1.53;;;9.00;82.70;;;;;;5105927;28;20047;-64
2023/10/30 01:20:37;;;;;;;8.40;1.50;;;9.00;82.70;;;;;;5105030;28;20051;-64
2023/10/30 01:23:02;;;;;;;4.80;1.27;;;9.00;82.60;;;;;;5098520;28;20570;-64
2023/10/30 01:25:28;;;;;;;5.33;1.30;;;9.00;82.60;;;;;;5105855;28;20059;-64
2023/10/30 01:27:54;;;;;;;6.00;1.30;;;9.00;82.60;;;;;;5105843;28;20088;-65
2023/10/30 01:30:20;;;;;;;6.53;1.23;;;9.00;82.70;;;;;;5106066;28;20509;-64
2023/10/30 01:32:46;;;;;;;5.33;1.30;;;9.00;82.60;;;;;;5087928;28;20427;-64
2023/10/30 01:35:11;;;;;;;3.07;1.10;;;9.00;82.70;;;;;;5096839;28;20044;-64
2023/10/30 01:37:37;;;;;;;7.37;1.30;;;9.00;82.60;;;;;;5105192;28;20084;-64
2023/10/30 01:40:03;;;;;;;4.20;1.30;;;9.00;82.40;;;;;;5105403;28;20050;-65
2023/10/30 01:42:29;;;;;;;8.57;1.10;;;9.00;82.40;;;;;;5088308;28;20047;-64
2023/10/30 01:44:56;;;;;;;5.63;1.03;;;9.00;82.30;;;;;;5106904;28;20549;-64
2023/10/30 01:47:23;;;;;;;3.43;1.10;;;9.00;82.20;;;;;;5105468;28;20066;-64
2023/10/30 01:49:49;;;;;;;3.47;0.90;;;9.00;82.30;;;;;;5106499;28;20056;-64
2023/10/30 01:52:16;;;;;;;2.27;1.10;;;9.00;82.30;;;;;;5108213;28;20051;-64
2023/10/30 01:54:44;;;;;;;2.63;1.00;;;9.00;82.20;;;;;;5109409;28;20560;-64
2023/10/30 01:57:11;;;;;;;5.20;1.10;;;9.00;82.20;;;;;;5112847;28;20043;-64
2023/10/30 01:59:37;;;;;;;8.20;1.20;;;9.00;82.30;;;;;;5112906;28;20059;-64
2023/10/30 02:02:02;;;;;;;4.73;1.00;;;9.00;82.40;;;;;;5095430;28;20081;-64
2023/10/30 02:04:28;;;;;;;4.57;0.90;;;9.00;82.30;;;;;;5112323;28;20082;-65
2023/10/30 02:06:54;;;;;;;3.63;1.23;;;9.00;82.30;;;;;;5113089;28;20119;-64
2023/10/30 02:09:20;;;;;;;4.50;1.10;;;9.00;82.20;;;;;;5113240;28;20131;-64
2023/10/30 02:11:45;;;;;;;3.33;0.87;;;9.00;82.20;;;;;;5112509;28;20048;-64
2023/10/30 02:14:11;;;;;;;4.80;1.00;;;8.90;82.20;;;;;;5112641;28;20059;-64
2023/10/30 02:16:37;;;;;;;7.13;1.23;;;8.90;82.20;;;;;;5112653;28;20044;-64
2023/10/30 02:19:08;;;;;;;4.93;1.37;;;8.90;82.20;;;;;;5110422;28;20043;-64
2023/10/30 02:21:33;;;;;;;8.52;1.42;;;8.80;82.20;;;;;;5111620;28;20122;-64
2023/10/30 02:24:06;;;;;;;5.33;1.50;;;8.80;82.30;;;;;;5112016;28;20136;-64
2023/10/30 02:26:32;;;;;;;4.60;1.13;;;8.80;82.30;;;;;;5112473;28;20595;-64
2023/10/30 02:29:01;;;;;;;5.47;1.60;;;8.80;82.40;;;;;;5112302;28;20039;-64
2023/10/30 02:31:27;;;;;;;6.57;1.30;;;8.70;82.50;;;;;;5111972;28;20045;-64
2023/10/30 02:33:52;;;;;;;5.53;1.70;;;8.70;82.60;;;;;;5112590;28;20409;-64
2023/10/30 02:36:18;;;;;;;6.33;1.67;;;8.60;82.70;;;;;;5112099;28;20469;-64
2023/10/30 02:38:43;;;;;;;3.57;1.63;;;8.70;82.70;;;;;;5112973;28;20371;-64
2023/10/30 02:41:09;;;;;;;6.90;1.73;;;8.70;82.80;;;;;;5093692;28;20051;-64
2023/10/30 02:43:35;;;;;;;7.50;2.00;;;8.70;82.70;;;;;;5112388;28;20047;-64
2023/10/30 02:46:00;;;;;;;11.00;2.10;;;8.60;82.80;;;;;;5111765;28;20523;-64
2023/10/30 02:48:26;;;;;;;7.17;2.17;;;8.60;82.90;;;;;;5112479;28;20044;-64
2023/10/30 02:50:52;;;;;;;6.97;2.07;;;8.60;83.00;;;;;;5111418;28;20051;-64
2023/10/30 02:53:17;;;;;;;7.07;2.23;;;8.60;82.90;;;;;;5111920;28;20048;-64
2023/10/30 02:55:43;;;;;;;8.10;2.60;;;8.60;83.10;;;;;;5111434;28;20088;-64
2023/10/30 02:58:09;;;;;;;9.30;2.90;;;8.60;83.10;;;;;;5112482;28;20402;-64
2023/10/30 03:00:34;;;;;;;10.27;2.60;;;8.60;83.20;;;;;;5111808;28;20047;-64
2023/10/30 03:03:00;;;;;;;7.77;2.50;;;8.60;83.30;;;;;;5111949;28;20040;-64
2023/10/30 03:05:25;;;;;;;7.70;2.90;;;8.60;83.30;;;;;;5111090;28;20044;-64
2023/10/30 03:07:51;;;;;;;5.67;2.43;;;8.60;83.30;;;;;;5110545;28;20047;-64
2023/10/30 03:10:17;;;;;;;12.87;2.90;;;8.60;83.30;;;;;;5110424;28;20051;-64
2023/10/30 03:12:43;;;;;;;9.00;2.60;;;8.60;83.30;;;;;;5111307;28;20065;-64
2023/10/30 03:15:09;;;;;;;8.87;2.60;;;8.60;83.30;;;;;;5111346;28;20059;-64
2023/10/30 03:17:35;;;;;;;9.90;3.00;;;8.60;83.40;;;;;;5094361;28;20046;-63
2023/10/30 03:20:00;;;;;;;11.63;3.07;;;8.60;83.40;;;;;;5111328;28;20414;-64
2023/10/30 03:22:26;;;;;;;12.57;3.27;;;8.60;83.50;;;;;;5111084;28;20513;-64
2023/10/30 03:24:51;;;;;;;8.90;3.10;;;8.70;83.60;;;;;;5108797;28;20425;-64
2023/10/30 03:27:17;;;;;;;9.37;2.90;;;8.70;83.50;;;;;;5110439;28;20123;-64
2023/10/30 03:29:43;;;;;;;10.00;3.33;;;8.70;83.50;;;;;;5111447;28;20088;-64
2023/10/30 03:32:08;;;;;;;14.17;2.93;;;8.80;83.50;;;;;;5111714;28;20072;-64
2023/10/30 03:34:35;;;;;;;12.53;3.10;;;8.80;83.50;;;;;;5110124;28;20047;-64
2023/10/30 03:37:00;;;;;;;9.77;2.90;;;8.80;83.40;;;;;;5111409;28;20074;-64
2023/10/30 03:39:26;;;;;;;12.67;3.07;;;8.80;83.30;;;;;;5092484;28;20383;-64
2023/10/30 03:41:52;;;;;;;14.23;3.13;;;8.80;83.30;;;;;;5110861;28;20108;-64
2023/10/30 03:44:19;;;;;;;13.37;2.77;;;8.80;83.30;;;;;;5111298;28;20047;-64
2023/10/30 03:46:45;;;;;;;14.27;3.07;;;8.80;83.20;;;;;;5111053;28;20047;-64
2023/10/30 03:49:11;;;;;;;15.03;2.83;;;8.80;83.20;;;;;;5110664;28;20542;-64
2023/10/30 03:51:36;;;;;;;14.33;3.13;;;8.80;83.30;;;;;;5092216;28;20050;-65
2023/10/30 03:54:02;;;;;;;14.47;2.90;;;8.80;83.20;;;;;;5110329;28;20079;-64
2023/10/30 03:56:28;;;;;;;11.27;3.30;;;8.80;83.20;;;;;;5110898;28;20048;-64
2023/10/30 03:58:53;;;;;;;12.23;3.17;;;8.80;83.30;;;;;;5110476;28;20082;-64
2023/10/30 04:01:19;;;;;;;8.00;2.60;;;8.80;83.30;;;;;;5109998;28;20098;-64
2023/10/30 04:03:45;;;;;;;14.00;3.30;;;8.80;83.30;;;;;;5110359;28;20036;-64
2023/10/30 04:06:11;;;;;;;12.33;3.07;;;8.80;83.30;;;;;;5110415;28;20035;-64
2023/10/30 04:08:36;;;;;;;10.80;3.03;;;8.80;83.30;;;;;;5110364;28;20100;-65
2023/10/30 04:11:17;;;;;;;13.17;3.30;;;8.80;83.30;;;;;;5110377;28;20142;-64
2023/10/30 04:13:44;;;;;;;8.13;2.70;;;8.80;83.20;;;;;;5109817;28;20105;-65
2023/10/30 04:16:11;;;;;;;16.90;3.43;;;8.80;83.30;;;;;;5092101;28;20444;-64
2023/10/30 04:18:37;;;;;;;18.00;3.23;;;8.80;83.20;;;;;;5109571;28;20087;-65
2023/10/30 04:21:04;;;;;;;15.77;3.33;;;8.80;83.20;;;;;;5108500;28;20051;-64
2023/10/30 04:23:30;;;;;;;14.77;3.33;;;8.80;83.20;;;;;;5108867;28;20116;-64
2023/10/30 04:25:56;;;;;;;16.67;2.87;;;8.80;83.20;;;;;;5091548;28;20075;-64
2023/10/30 04:28:21;;;;;;;13.27;3.00;;;8.80;83.20;;;;;;5110615;28;20164;-64
2023/10/30 04:30:47;;;;;;;12.77;3.20;;;8.70;83.20;;;;;;5110019;28;20391;-64
2023/10/30 04:33:13;;;;;;;14.80;3.23;;;8.80;83.30;;;;;;5109893;28;20046;-64
2023/10/30 04:35:39;;;;;;;12.90;3.03;;;8.70;83.20;;;;;;5109716;28;20066;-64
2023/10/30 04:38:04;;;;;;;11.20;3.00;;;8.70;83.20;;;;;;5109788;28;20401;-64
2023/10/30 04:40:30;;;;;;;15.50;3.20;;;8.70;83.20;;;;;;5109256;28;20043;-64
2023/10/30 04:42:56;;;;;;;11.43;2.60;;;8.80;83.20;;;;;;5110399;28;20096;-64
2023/10/30 04:45:21;;;;;;;12.43;3.10;;;8.80;83.20;;;;;;5109438;28;20062;-64
2023/10/30 04:47:47;;;;;;;17.23;3.10;;;8.80;83.20;;;;;;5110024;28;20040;-65
2023/10/30 04:50:13;;;;;;;17.07;3.40;;;8.80;83.00;;;;;;5109649;28;20436;-64
2023/10/30 04:52:38;;;;;;;15.63;3.17;;;8.80;82.90;;;;;;5109372;28;20040;-64
2023/10/30 04:55:05;;;;;;;14.83;3.30;;;8.80;82.90;;;;;;5109728;28;20498;-65
2023/10/30 04:57:30;;;;;;;12.20;3.03;;;8.80;82.90;;;;;;5109611;28;20486;-65
2023/10/30 04:59:56;;;;;;;12.97;3.13;;;8.90;82.90;;;;;;5109969;28;20039;-65
2023/10/30 05:02:22;;;;;;;15.13;3.10;;;8.80;83.00;;;;;;5108814;28;20104;-64
2023/10/30 05:04:47;;;;;;;13.03;2.90;;;8.90;83.00;;;;;;5108266;28;20044;-65
2023/10/30 05:07:13;;;;;;;14.03;3.70;;;8.90;82.90;;;;;;5110053;28;20389;-65
2023/10/30 05:09:38;;;;;;;19.20;4.80;;;9.00;83.10;;;;;;5109760;28;20465;-64
2023/10/30 05:12:05;;;;;;;16.97;3.17;;;9.00;83.10;;;;;;5109325;28;20376;-65
2023/10/30 05:14:30;;;;;;;21.33;9.37;;;9.00;83.00;;;;;;5120911;27;20176;-64
2023/10/30 05:16:56;;;;;;;13.60;3.90;;;9.00;83.00;;;;;;5111864;27;20122;-64
2023/10/30 05:19:22;;;;;;;14.83;3.60;;;9.00;83.00;;;;;;5106932;28;20051;-64
2023/10/30 05:21:47;;;;;;;17.03;3.20;;;9.00;82.80;;;;;;5108676;28;20051;-65
2023/10/30 05:24:13;;;;;;;17.37;3.57;;;9.00;82.70;;;;;;5109006;28;20047;-64
2023/10/30 05:26:39;;;;;;;12.53;3.50;;;9.00;82.60;;;;;;5108542;28;20047;-64
2023/10/30 05:29:04;;;;;;;13.53;3.27;;;9.00;82.60;;;;;;5109436;28;20039;-65
2023/10/30 05:31:30;;;;;;;14.97;3.50;;;8.90;82.60;;;;;;5108254;28;20051;-64
2023/10/30 05:33:56;;;;;;;12.80;2.83;;;8.90;82.60;;;;;;5090490;28;20043;-64
2023/10/30 05:36:21;;;;;;;18.13;3.27;;;8.80;82.60;;;;;;5090254;28;20134;-64
2023/10/30 05:38:47;;;;;;;12.33;3.37;;;8.80;82.60;;;;;;5108738;28;20035;-64
2023/10/30 05:41:12;;;;;;;19.57;3.43;;;8.80;82.60;;;;;;5109116;28;20044;-64
2023/10/30 05:43:38;;;;;;;15.87;3.83;;;8.80;82.60;;;;;;5109194;28;20036;-65
2023/10/30 05:46:04;;;;;;;17.97;3.43;;;8.70;82.70;;;;;;5090406;28;20043;-64
2023/10/30 05:48:29;;;;;;;13.97;3.50;;;8.70;82.80;;;;;;5108854;28;20039;-64
2023/10/30 05:50:55;;;;;;;13.97;3.43;;;8.60;82.80;;;;;;5108910;28;20516;-64
2023/10/30 05:53:21;;;;;;;15.87;4.00;;;8.60;82.80;;;;;;5108870;28;20043;-64
2023/10/30 05:55:46;;;;;;;15.07;3.50;;;8.60;82.90;;;;;;5109340;28;20059;-64
2023/10/30 05:58:12;;;;;;;15.50;3.80;;;8.60;82.90;;;;;;5108639;28;20047;-64
2023/10/30 06:00:38;;;;;;;11.77;3.57;;;8.60;83.00;;;;;;5109196;28;20397;-64
2023/10/30 06:03:09;;;;;;;15.87;4.60;;;8.60;83.00;;;;;;5108840;28;20581;-64
2023/10/30 06:05:35;;;;;;;17.67;3.80;;;8.60;83.10;;;;;;5108502;28;20575;-64
2023/10/30 06:08:01;;;;;;;18.97;5.47;;;8.60;83.10;;;;;;5109049;28;20040;-64
2023/10/30 06:10:26;;;;;;;14.27;4.50;;;8.50;83.20;;;;;;5108943;28;20104;-64
2023/10/30 06:12:52;;;;;;;13.77;3.53;;;8.50;83.20;;;;;;5108530;28;20108;-64
2023/10/30 06:15:18;;;;;;;16.40;5.30;;;8.50;83.20;;;;;;5108517;28;20375;-64
2023/10/30 06:17:44;;;;;;;21.50;7.00;;;8.50;83.30;;;;;;5109154;28;20052;-64
2023/10/30 06:20:10;;;;;;;18.23;5.10;;;8.50;83.20;;;;;;5105787;28;20079;-64
2023/10/30 06:22:36;;;;;;;18.03;4.67;;;8.40;83.30;;;;;;5090304;28;20043;-64
2023/10/30 06:25:02;;;;;;;18.00;3.80;;;8.40;83.20;;;;;;5107115;28;20192;-64
2023/10/30 06:27:27;;;;;;;18.90;3.97;;;8.40;83.20;;;;;;5108026;28;20082;-64
2023/10/30 06:29:53;;;;;;;18.57;4.67;;;8.40;83.30;;;;;;5108839;28;20054;-64
2023/10/30 06:32:19;;;;;;;18.80;4.23;;;8.40;83.30;;;;;;5108809;28;20035;-64
2023/10/30 06:34:45;;;;;;;20.37;4.10;;;8.40;83.30;;;;;;5108807;28;20142;-64
2023/10/30 06:37:11;;;;;;;19.97;3.97;;;8.40;83.30;;;;;;5108348;28;20481;-64
2023/10/30 06:39:37;;;;;;;11.10;3.03;;;8.40;83.40;;;;;;5108400;28;20060;-64
2023/10/30 06:42:03;;;;;;;13.87;3.10;;;8.40;83.40;;;;;;5090296;28;20059;-64
2023/10/30 06:44:28;;;;;;;17.20;3.50;;;8.30;83.60;;;;;;5112289;28;20043;-64
2023/10/30 06:46:56;;;;;;;17.33;3.40;;;8.30;83.60;;;;;;5111574;28;20039;-64
2023/10/30 06:49:21;;;;;;;18.30;3.27;;;8.40;83.80;;;;;;5093642;28;20494;-64
2023/10/30 06:51:47;;;;;;;20.47;3.57;;;8.40;83.90;;;;;;5095181;28;20055;-64
2023/10/30 06:54:14;;;;;;;15.27;3.07;;;8.40;83.90;;;;;;5096878;28;20105;-64
2023/10/30 06:56:40;;;;;;;16.70;3.33;;;8.50;84.00;;;;;;5109216;28;20498;-64
2023/10/30 06:59:06;;;;;;;23.30;4.30;;;8.50;84.00;;;;;;5109229;28;20050;-64
2023/10/30 07:01:45;;;;;;;14.13;3.80;;;8.50;84.10;;;;;;5098515;27;20051;-65
2023/10/30 07:04:11;;;;;;;13.43;3.77;;;8.60;84.00;;;;;;5108793;27;20096;-64
2023/10/30 07:06:38;;;;;;;14.73;3.70;;;8.60;84.00;;;;;;5109258;28;20050;-65
2023/10/30 07:09:07;;;;;;;17.87;3.30;;;8.60;84.00;;;;;;5108976;28;20130;-64
2023/10/30 07:11:36;;;;;;;15.87;3.33;;;8.70;84.00;;;;;;5107478;28;20127;-64
2023/10/30 07:14:03;;;;;;;19.43;3.50;;;8.80;84.00;;;;;;5105263;28;20051;-64
2023/10/30 07:16:29;;;;;;;19.63;4.07;;;8.80;83.90;;;;;;5112286;27;20072;-64
2023/10/30 07:18:56;;;;;;;12.53;3.00;;;8.90;83.80;;;;;;5106086;28;20154;-64
2023/10/30 07:21:23;;;;;;;17.97;3.40;;;9.00;83.80;;;;;;5107865;28;20051;-65
2023/10/30 07:23:48;;;;;;;18.30;3.33;;;9.00;83.90;;;;;;5107896;28;20036;-64
2023/10/30 07:26:15;;;;;;;15.60;3.60;;;9.00;83.80;;;;;;5108628;28;20050;-64
2023/10/30 07:28:41;;;;;;;12.30;3.40;;;9.00;83.90;;;;;;5106202;28;20052;-64
2023/10/30 07:31:06;;;;;;;22.07;3.83;;;9.20;83.80;;;;;;5088295;28;20086;-64
2023/10/30 07:33:32;;;;;;;20.97;3.87;;;9.30;83.80;;;;;;5087990;28;20056;-64
2023/10/30 07:36:01;;;;;;;20.50;3.87;;;9.50;83.50;;;;;;5099796;28;20088;-65
2023/10/30 07:38:27;;;;;;;14.20;4.03;;;9.60;83.20;;;;;;5083898;28;20478;-65
2023/10/30 07:40:53;;;;;;;15.40;3.50;;;9.70;82.60;;;;;;5106953;28;20054;-64
2023/10/30 07:43:21;;;;;;;11.10;3.33;;;9.70;82.60;;;;;;5106888;28;20048;-64
2023/10/30 07:45:47;;;;;;;14.37;3.70;;;9.70;82.80;;;;;;5098997;28;20047;-65
2023/10/30 07:48:13;;;;;;;15.30;3.20;;;9.70;83.00;;;;;;5105902;28;20039;-64
2023/10/30 07:50:39;;;;;;;14.50;3.77;;;9.80;82.90;;;;;;5108327;28;20043;-64
2023/10/30 07:53:05;;;;;;;11.50;3.60;;;9.80;82.80;;;;;;5104494;28;20042;-64
2023/10/30 07:55:30;;;;;;;20.90;3.87;;;9.90;82.90;;;;;;5107362;28;20108;-65
2023/10/30 07:57:56;;;;;;;15.07;3.30;;;9.90;83.00;;;;;;5090470;28;20058;-64
2023/10/30 08:00:22;;;;;;;18.40;3.60;;;10.00;83.00;;;;;;5110494;28;20047;-64
2023/10/30 08:02:49;;;;;;;14.57;3.70;;;10.00;83.00;;;;;;5110295;28;20173;-64
2023/10/30 08:05:15;;;;;;;19.40;3.63;;;10.10;82.90;;;;;;5095777;28;20047;-65
2023/10/30 08:07:47;;;;;;;21.23;4.33;;;10.20;82.90;;;;;;5087457;28;20386;-64
2023/10/30 08:10:13;;;;;;;18.43;3.70;;;10.20;82.90;;;;;;5105398;28;20047;-65
2023/10/30 08:12:40;;;;;;;14.40;3.43;;;10.30;82.60;;;;;;5103486;28;20039;-65
2023/10/30 08:15:07;;;;;;;17.17;4.03;;;10.30;82.80;;;;;;5106665;28;20094;-65
2023/10/30 08:17:33;;;;;;;22.20;3.63;;;10.30;82.60;;;;;;5104669;27;20058;-64
2023/10/30 08:19:59;;;;;;;23.50;4.33;;;10.30;82.60;;;;;;5083221;28;20403;-65
2023/10/30 08:22:25;;;;;;;15.53;3.67;;;10.30;82.50;;;;;;5069251;28;20103;-64
2023/10/30 08:24:51;;;;;;;13.27;3.33;;;10.40;82.50;;;;;;5083001;28;20067;-65
2023/10/30 08:27:17;;;;;;;14.57;3.80;;;10.40;82.30;;;;;;5082751;28;20738;-65
2023/10/30 08:29:43;;;;;;;11.50;3.40;;;10.40;82.20;;;;;;5066816;28;20065;-65
2023/10/30 08:32:09;;;;;;;14.30;3.50;;;10.50;82.20;;;;;;5067308;28;20105;-64
2023/10/30 08:34:35;;;;;;;17.93;3.97;;;10.50;82.40;;;;;;5074511;28;20341;-65
2023/10/30 08:37:00;;;;;;;14.93;4.03;;;10.50;82.10;;;;;;5074336;28;20632;-65
2023/10/30 08:39:26;;;;;;;20.17;5.63;;;10.60;82.30;;;;;;5076203;28;20070;-64
2023/10/30 08:41:52;;;;;;;17.83;4.40;;;10.60;81.90;;;;;;5074099;28;20578;-64
2023/10/30 08:44:18;;;;;;;19.63;4.40;;;10.70;82.00;;;;;;5074290;28;20117;-65
2023/10/30 08:46:43;;;;;;;15.90;3.60;;;10.70;81.80;;;;;;5075201;28;20055;-65
2023/10/30 08:49:09;;;;;;;22.03;4.07;;;10.70;81.70;;;;;;5075060;28;20082;-65
2023/10/30 08:51:42;;;;;;;16.50;3.60;;;10.80;81.80;;;;;;5075789;28;20054;-64
2023/10/30 08:54:07;;;;;;;18.93;3.97;;;10.80;81.70;;;;;;5061708;28;20059;-65
2023/10/30 08:56:33;;;;;;;16.90;3.85;;;10.90;81.80;;;;;;5073495;28;20052;-65
2023/10/30 08:58:59;;;;;;;11.73;3.25;;;10.90;81.30;;;;;;5075326;28;20040;-65
2023/10/30 09:01:26;;;;;;;15.65;3.78;;;10.90;81.20;;;;;;5071896;28;20044;-64
2023/10/30 09:03:52;;;;;;;10.83;3.57;;;11.00;81.40;;;;;;5074057;28;20075;-64
2023/10/30 09:06:18;;;;;;;18.70;4.10;;;11.10;81.70;;;;;;5066263;28;20509;-65
2023/10/30 09:08:44;;;;;;;14.73;3.60;;;11.10;81.70;;;;;;5061826;28;20054;-65
2023/10/30 09:11:10;;;;;;;14.25;3.90;;;11.10;81.40;;;;;;5073287;28;20430;-65
2023/10/30 09:13:36;;;;;;;16.27;3.67;;;11.30;81.00;;;;;;5069542;28;20086;-65
2023/10/30 09:16:02;;;;;;;16.35;3.63;;;11.30;81.10;;;;;;5069740;28;20055;-65
2023/10/30 09:18:28;;;;;;;14.15;4.32;;;11.40;81.00;;;;;;5077938;28;20059;-65
2023/10/30 09:20:53;;;;;;;15.98;3.83;;;11.50;81.00;;;;;;5096374;28;20134;-65
2023/10/30 09:23:19;;;;;;;18.65;3.92;;;11.50;80.20;;;;;;5075393;28;20254;-65
2023/10/30 09:25:44;;;;;;;13.30;3.88;;;11.50;80.00;;;;;;5095141;28;20036;-64
2023/10/30 09:28:11;;;;;;;14.40;4.00;;;11.50;80.20;;;;;;5096619;28;20610;-65
2023/10/30 09:30:37;;;;;;;16.25;4.55;;;11.50;80.30;;;;;;5095156;28;20048;-65
2023/10/30 09:33:03;;;;;;;17.33;4.40;;;11.50;80.30;;;;;;5094360;28;20040;-65
2023/10/30 09:35:30;;;;;;;16.42;3.70;;;11.50;80.30;;;;;;5093986;28;20059;-65
2023/10/30 09:37:56;;;;;;;13.73;4.00;;;11.50;80.50;;;;;;5095183;28;20055;-65
2023/10/30 09:40:26;;;;;;;16.95;3.70;;;11.50;80.60;;;;;;5097142;28;20055;-64
2023/10/30 09:42:56;;;;;;;12.40;4.13;;;11.50;80.70;;;;;;5095829;28;20048;-65
2023/10/30 09:45:23;;;;;;;16.63;4.40;;;11.70;80.70;;;;;;5094928;28;20047;-65
2023/10/30 09:47:54;;;;;;;19.80;4.43;;;11.70;80.30;;;;;;5081397;28;20063;-65
2023/10/30 09:50:22;;;;;;;15.93;4.05;;;11.80;80.40;;;;;;5072443;28;20042;-65
2023/10/30 09:52:49;;;;;;;14.40;3.88;;;11.90;80.40;;;;;;5089217;28;20048;-65
2023/10/30 09:55:18;;;;;;;18.15;4.60;;;12.00;80.00;;;;;;5074483;28;20395;-65
2023/10/30 09:57:47;;;;;;;14.95;4.35;;;12.10;79.40;;;;;;5085520;28;20052;-65
2023/10/30 10:00:13;;;;;;;14.30;4.18;;;12.10;79.70;;;;;;5087700;28;20062;-65
2023/10/30 10:02:40;;;;;;;13.98;3.95;;;12.20;79.80;;;;;;5088509;28;20402;-65
2023/10/30 10:05:08;;;;;;;19.95;4.20;;;12.30;79.40;;;;;;5093737;28;20059;-65
2023/10/30 10:07:34;;;;;;;16.15;3.75;;;12.30;78.70;;;;;;5090947;28;20355;-65
2023/10/30 10:10:02;;;;;;;12.25;3.83;;;12.30;79.20;;;;;;5092009;28;20052;-65
2023/10/30 10:12:36;;;;;;;14.43;3.75;;;12.40;79.10;;;;;;5087962;28;20048;-65
2023/10/30 10:15:08;;;;;;;12.70;3.45;;;12.50;79.00;;;;;;5095572;28;20946;-65
2023/10/30 10:17:45;;;;;;;13.57;3.50;;;12.50;78.40;;;;;;5085816;28;20109;-64
2023/10/30 10:20:11;;;;;;;13.27;4.43;;;12.60;78.70;;;;;;5099672;28;20071;-65
2023/10/30 10:22:38;;;;;;;13.88;3.92;;;12.70;78.90;;;;;;5080192;28;20524;-65
2023/10/30 10:25:08;;;;;;;15.18;3.90;;;12.90;78.90;;;;;;5087474;28;20138;-65
2023/10/30 10:27:34;;;;;;;17.55;4.10;;;13.00;78.60;;;;;;5092343;28;20039;-65
2023/10/30 10:30:00;;;;;;;18.92;4.25;;;13.00;78.10;;;;;;5087728;28;20056;-66
2023/10/30 10:32:27;;;;;;;18.75;4.70;;;13.00;77.70;;;;;;5088558;28;20414;-65
2023/10/30 10:34:57;;;;;;;16.02;5.15;;;13.00;77.70;;;;;;5084864;28;20047;-65
2023/10/30 10:37:23;;;;;;;19.02;3.97;;;13.00;77.60;;;;;;5097086;28;20141;-65
2023/10/30 10:39:50;;;;;;;15.40;4.57;;;13.10;77.50;;;;;;5099404;28;20103;-65
2023/10/30 10:42:20;;;;;;;13.80;4.30;;;13.10;77.80;;;;;;5087702;28;20056;-65
2023/10/30 10:44:48;;;;;;;13.73;4.95;;;13.10;77.40;;;;;;5084849;28;20044;-65
2023/10/30 10:47:14;;;;;;;14.15;4.57;;;13.10;76.50;;;;;;5088669;28;20043;-65
2023/10/30 10:49:41;;;;;;;10.52;4.25;;;13.10;77.40;;;;;;5091475;28;20126;-65
2023/10/30 10:52:12;;;;;;;13.85;3.90;;;13.10;77.50;;;;;;5085448;28;20047;-65
2023/10/30 10:54:50;;;;;;;12.75;4.80;;;13.10;77.50;;;;;;5091859;28;20059;-65
2023/10/30 10:57:20;;;;;;;13.73;4.85;;;13.30;77.40;;;;;;5090442;28;20040;-65
2023/10/30 10:59:50;;;;;;;12.05;3.67;;;13.30;77.00;;;;;;5100434;28;20085;-65
2023/10/30 11:02:22;;;;;;;19.17;4.50;;;13.30;77.40;;;;;;5074335;28;20498;-65
2023/10/30 11:04:50;;;;;;;13.98;4.53;;;13.30;77.40;;;;;;5100238;28;20052;-65
2023/10/30 11:07:24;;;;;;;13.77;3.70;;;13.30;77.50;;;;;;5085412;28;20051;-65
2023/10/30 11:09:54;;;;;;;14.38;4.15;;;13.40;77.80;;;;;;5087322;28;20391;-65
2023/10/30 11:12:41;;;;;;;12.57;4.30;;;13.50;77.50;;;;;;5088988;28;20051;-65
2023/10/30 11:15:12;;;;;;;15.32;5.63;;;13.60;77.30;;;;;;5092162;28;20865;-65
2023/10/30 11:17:38;;;;;;;13.07;4.50;;;13.70;76.70;;;;;;5088601;28;20044;-65
2023/10/30 11:20:08;;;;;;;14.32;4.22;;;13.80;76.50;;;;;;5087090;28;20067;-65
2023/10/30 11:22:40;;;;;;;18.30;4.40;;;13.70;76.10;;;;;;5089083;28;20124;-65
2023/10/30 11:25:26;;;;;;;13.23;5.18;;;13.70;76.20;;;;;;5086728;28;20135;-65
2023/10/30 11:27:52;;;;;;;16.95;4.43;;;13.70;76.30;;;;;;5090327;28;20043;-65
2023/10/30 11:30:22;;;;;;;14.63;4.68;;;13.70;76.10;;;;;;5086619;27;20427;-65
2023/10/30 11:32:48;;;;;;;16.70;4.93;;;13.70;76.20;;;;;;5090887;28;20424;-65
2023/10/30 11:35:14;;;;;;;14.48;4.97;;;13.70;76.10;;;;;;5075627;28;20282;-65
2023/10/30 11:37:40;;;;;;;13.32;4.63;;;13.70;76.10;;;;;;5089435;28;20051;-65
2023/10/30 11:40:10;;;;;;;16.45;4.82;;;13.60;76.00;;;;;;5089561;28;20138;-65
2023/10/30 11:42:40;;;;;;;14.48;4.53;;;13.60;76.30;;;;;;5086399;28;20052;-65
2023/10/30 11:45:25;;;;;;;17.70;4.60;;;13.60;76.80;;;;;;5086764;28;20051;-65
2023/10/30 11:48:00;;;;;;;13.55;4.13;;;13.60;76.20;;;;;;5089049;28;20055;-65
2023/10/30 11:50:35;;;;;;;15.27;4.30;;;13.60;76.50;;;;;;5075139;28;20515;-65
2023/10/30 11:53:11;;;;;;;14.88;4.95;;;13.60;76.50;;;;;;5076373;28;20074;-65
2023/10/30 11:55:38;;;;;;;19.30;4.63;;;13.60;76.10;;;;;;5094202;28;21441;-65
2023/10/30 11:58:04;;;;;;;13.02;4.43;;;13.60;76.20;;;;;;5089514;28;20043;-65
2023/10/30 12:00:30;;;;;;;15.73;4.65;;;13.70;76.00;;;;;;5091387;28;20531;-65
2023/10/30 12:02:56;;;;;;;16.10;4.35;;;13.70;76.00;;;;;;5092810;28;20761;-65
2023/10/30 12:05:24;;;;;;;16.52;4.70;;;13.70;75.90;;;;;;5090549;28;20063;-65
2023/10/30 12:07:49;;;;;;;15.15;4.57;;;13.70;75.80;;;;;;5088585;28;20063;-65
2023/10/30 12:10:15;;;;;;;18.25;5.10;;;13.70;76.20;;;;;;5092145;28;20837;-65
2023/10/30 12:12:41;;;;;;;16.58;4.97;;;13.80;76.30;;;;;;5092213;28;20054;-65
2023/10/30 12:15:07;;;;;;;14.32;4.60;;;13.90;76.20;;;;;;5090474;28;20139;-65
2023/10/30 12:17:33;;;;;;;15.23;4.45;;;13.90;75.90;;;;;;5089091;28;20055;-65
2023/10/30 12:19:59;;;;;;;16.40;4.85;;;13.90;75.50;;;;;;5087777;28;20115;-66
2023/10/30 12:22:25;;;;;;;17.20;5.28;;;13.90;75.70;;;;;;5083889;28;20488;-65
2023/10/30 12:24:51;;;;;;;12.85;4.55;;;13.80;75.70;;;;;;5086772;28;20051;-65
2023/10/30 12:27:20;;;;;;;15.93;5.57;;;13.60;75.90;;;;;;5085593;27;20131;-65
2023/10/30 12:29:46;;;;;;;15.15;5.78;;;13.60;76.40;;;;;;5066504;28;20386;-65
2023/10/30 12:32:12;;;;;;;11.73;5.00;;;13.50;76.50;;;;;;5085719;28;20052;-65
2023/10/30 12:34:38;;;;;;;15.55;5.03;;;13.50;76.60;;;;;;5086980;28;20052;-65
2023/10/30 12:37:39;;;;;;;15.40;5.22;;;13.40;76.50;;;;;;5089298;28;20039;-65
2023/10/30 12:40:10;;;;;;;14.05;4.70;;;13.30;76.60;;;;;;5058171;28;20116;-65
2023/10/30 12:42:40;;;;;;;14.07;4.80;;;13.30;76.80;;;;;;5087608;28;20484;-65